Weather at Lopez Ranch Airport

Public forecast

Using degrees Fahrenheit for public forecast. Weather courtesy of forecast.io.

Closest aviation weather report (METAR) to Lopez Ranch Airport

Report is more than 6 hours old.

Closest report is Kimble County Airport, 20.6 nm (38.2 km) SE. Retrieved 2022/09/17 18:51 UTC (13 days ago):

KJCT 171851Z AUTO 17010G15KT 140V200 10SM BKN049 31/19 A3003 RMK AO2 SLP129 T03110194

Closest aviation forecast (TAF) to Lopez Ranch Airport

Forecast is more than 12 hours old.

Closest forecast is Kimble County Airport, 20.6 nm (38.2 km) SE. Retrieved 2022/09/17 18:24 UTC (13 days ago):

TAF KJCT 171723Z 1718/1818 17010G17KT P6SM SCT040 FM180100 15007KT P6SM SKC FM181200 16007KT P6SM SCT020 FM181600 17010KT P6SM SCT250